RYS84DR LGRP-EPRZ
Flight info
| Callsign | RYS84DR |
|---|---|
| Flight time | N/A |
| Altitude | 38000 |
| Route | VANES B34 GILOS UM601 ADESO UN133 ATFIR DCT LOMOS DCT KARIL DCT KENIN DCT ROBTU DCT LUXAR |
| Aircraft | B738/M-SDFGIJ1LRWY/SB1 |
Departure
| Time | N/A |
|---|---|
| Airport | Rhodes International Airport "Diagoras" (LGRP) |
Arrival
| Time | 2026-05-08 06:04 |
|---|---|
| Airport | Rzeszów-Jasionka Airport (EPRZ) |
| Time | Latitude | Longitude | Altitude | Speed | Heading |
|---|---|---|---|---|---|
| 2026-05-08 05:36 | 47.82047 | 22.43936 | 36395 ft | 449 kts | 352° |
| 2026-05-08 05:36 | 47.84111 | 22.43754 | 36037 ft | 451 kts | 354° |
| 2026-05-08 05:36 | 47.88316 | 22.43526 | 35505 ft | 453 kts | 355° |
| 2026-05-08 05:37 | 47.91457 | 22.43409 | 35076 ft | 454 kts | 355° |
| 2026-05-08 05:37 | 47.94606 | 22.43300 | 34677 ft | 456 kts | 355° |
| 2026-05-08 05:37 | 47.97798 | 22.43180 | 34300 ft | 469 kts | 355° |
| 2026-05-08 05:37 | 47.99957 | 22.43093 | 34005 ft | 468 kts | 355° |
| 2026-05-08 05:38 | 48.03206 | 22.42957 | 33470 ft | 467 kts | 355° |
| 2026-05-08 05:38 | 48.07539 | 22.42763 | 32709 ft | 467 kts | 355° |
| 2026-05-08 05:38 | 48.10760 | 22.42612 | 32143 ft | 467 kts | 355° |
| 2026-05-08 05:38 | 48.13979 | 22.42455 | 31576 ft | 466 kts | 355° |
| 2026-05-08 05:39 | 48.17224 | 22.42292 | 31005 ft | 465 kts | 355° |
| 2026-05-08 05:39 | 48.20423 | 22.42129 | 30442 ft | 465 kts | 355° |
| 2026-05-08 05:39 | 48.23659 | 22.41962 | 29863 ft | 464 kts | 355° |
| 2026-05-08 05:39 | 48.26874 | 22.41793 | 29289 ft | 463 kts | 355° |
| 2026-05-08 05:40 | 48.30067 | 22.41625 | 28718 ft | 463 kts | 355° |
| 2026-05-08 05:40 | 48.33297 | 22.41455 | 28140 ft | 462 kts | 355° |
| 2026-05-08 05:40 | 48.36474 | 22.41287 | 27571 ft | 461 kts | 355° |
| 2026-05-08 05:40 | 48.38625 | 22.41174 | 27187 ft | 460 kts | 355° |
| 2026-05-08 05:41 | 48.41808 | 22.41005 | 26621 ft | 459 kts | 355° |
| 2026-05-08 05:41 | 48.46068 | 22.40780 | 25869 ft | 458 kts | 355° |
| 2026-05-08 05:41 | 48.49216 | 22.40613 | 25303 ft | 457 kts | 355° |
| 2026-05-08 05:41 | 48.52390 | 22.40445 | 24736 ft | 455 kts | 355° |
| 2026-05-08 05:42 | 48.55547 | 22.40277 | 24106 ft | 456 kts | 355° |
| 2026-05-08 05:42 | 48.58711 | 22.40107 | 23465 ft | 456 kts | 356° |
| 2026-05-08 05:42 | 48.61874 | 22.39938 | 22826 ft | 456 kts | 356° |
| 2026-05-08 05:42 | 48.65002 | 22.39772 | 22201 ft | 456 kts | 356° |
| 2026-05-08 05:43 | 48.68174 | 22.39603 | 21600 ft | 454 kts | 356° |
| 2026-05-08 05:43 | 48.71308 | 22.39434 | 21029 ft | 452 kts | 356° |
| 2026-05-08 05:43 | 48.73403 | 22.39321 | 20644 ft | 450 kts | 356° |
| 2026-05-08 05:43 | 48.77536 | 22.39099 | 19911 ft | 446 kts | 356° |
| 2026-05-08 05:44 | 48.79583 | 22.38988 | 19545 ft | 445 kts | 356° |
| 2026-05-08 05:44 | 48.83686 | 22.38766 | 18804 ft | 442 kts | 356° |
| 2026-05-08 05:44 | 48.85743 | 22.38655 | 18443 ft | 440 kts | 356° |
| 2026-05-08 05:44 | 48.88783 | 22.38489 | 17898 ft | 437 kts | 356° |
| 2026-05-08 05:45 | 48.91791 | 22.38324 | 17351 ft | 434 kts | 356° |
| 2026-05-08 05:45 | 48.95793 | 22.38104 | 16607 ft | 430 kts | 356° |
| 2026-05-08 05:45 | 48.98750 | 22.37944 | 16109 ft | 426 kts | 356° |
| 2026-05-08 05:45 | 49.01701 | 22.37781 | 15697 ft | 420 kts | 356° |
| 2026-05-08 05:46 | 49.04578 | 22.37623 | 15294 ft | 413 kts | 356° |
| 2026-05-08 05:46 | 49.06503 | 22.37519 | 15026 ft | 408 kts | 356° |
| 2026-05-08 05:46 | 49.10215 | 22.37318 | 14498 ft | 399 kts | 356° |
| 2026-05-08 05:46 | 49.12985 | 22.37166 | 14091 ft | 392 kts | 356° |
| 2026-05-08 05:47 | 49.15676 | 22.37019 | 13700 ft | 386 kts | 357° |
| 2026-05-08 05:47 | 49.17454 | 22.36922 | 13432 ft | 382 kts | 356° |
| 2026-05-08 05:47 | 49.20058 | 22.36780 | 13038 ft | 377 kts | 357° |
| 2026-05-08 05:47 | 49.23502 | 22.36588 | 12480 ft | 371 kts | 356° |
| 2026-05-08 05:48 | 49.25251 | 22.36488 | 12146 ft | 369 kts | 356° |
| 2026-05-08 05:48 | 49.28646 | 22.36295 | 11493 ft | 366 kts | 357° |
| 2026-05-08 05:48 | 49.30336 | 22.36201 | 11285 ft | 361 kts | 357° |
| 2026-05-08 05:48 | 49.33584 | 22.36024 | 11125 ft | 344 kts | 357° |
| 2026-05-08 05:49 | 49.35930 | 22.35894 | 11013 ft | 332 kts | 357° |
| 2026-05-08 05:49 | 49.38182 | 22.35770 | 10901 ft | 322 kts | 357° |
| 2026-05-08 05:49 | 49.39668 | 22.35688 | 10828 ft | 315 kts | 357° |
| 2026-05-08 05:49 | 49.42523 | 22.35526 | 10677 ft | 302 kts | 356° |
| 2026-05-08 05:50 | 49.43896 | 22.35448 | 10602 ft | 295 kts | 356° |
| 2026-05-08 05:50 | 49.46587 | 22.35296 | 10452 ft | 285 kts | 356° |
| 2026-05-08 05:50 | 49.48545 | 22.35184 | 10231 ft | 281 kts | 356° |
| 2026-05-08 05:50 | 49.49847 | 22.35111 | 10056 ft | 280 kts | 357° |
| 2026-05-08 05:51 | 49.52446 | 22.34967 | 9686 ft | 279 kts | 356° |
| 2026-05-08 05:51 | 49.53738 | 22.34894 | 9496 ft | 278 kts | 356° |
| 2026-05-08 05:51 | 49.56234 | 22.34754 | 9150 ft | 277 kts | 356° |
| 2026-05-08 05:51 | 49.57515 | 22.34682 | 8961 ft | 276 kts | 356° |
| 2026-05-08 05:52 | 49.59413 | 22.34577 | 8693 ft | 275 kts | 356° |
| 2026-05-08 05:52 | 49.61333 | 22.34471 | 8417 ft | 274 kts | 356° |
| 2026-05-08 05:52 | 49.63220 | 22.34366 | 8136 ft | 273 kts | 356° |
| 2026-05-08 05:52 | 49.65734 | 22.34224 | 7772 ft | 271 kts | 356° |
| 2026-05-08 05:53 | 49.67009 | 22.34153 | 7587 ft | 271 kts | 356° |
| 2026-05-08 05:53 | 49.68867 | 22.34049 | 7313 ft | 269 kts | 356° |
| 2026-05-08 05:53 | 49.70761 | 22.33941 | 7035 ft | 268 kts | 356° |
| 2026-05-08 05:53 | 49.72603 | 22.33839 | 6764 ft | 267 kts | 356° |
| 2026-05-08 05:54 | 49.74451 | 22.33737 | 6501 ft | 264 kts | 357° |
| 2026-05-08 05:54 | 49.76275 | 22.33632 | 6247 ft | 261 kts | 357° |
| 2026-05-08 05:54 | 49.78668 | 22.33490 | 5952 ft | 256 kts | 356° |
| 2026-05-08 05:54 | 49.79855 | 22.33415 | 5816 ft | 253 kts | 356° |
| 2026-05-08 05:55 | 49.81611 | 22.33316 | 5614 ft | 249 kts | 356° |
| 2026-05-08 05:55 | 49.83335 | 22.33238 | 5411 ft | 245 kts | 357° |
| 2026-05-08 05:55 | 49.85024 | 22.33151 | 5209 ft | 242 kts | 357° |
| 2026-05-08 05:55 | 49.86680 | 22.33050 | 5010 ft | 238 kts | 356° |
| 2026-05-08 05:56 | 49.88309 | 22.32964 | 4810 ft | 235 kts | 356° |
| 2026-05-08 05:56 | 49.89936 | 22.32862 | 4609 ft | 232 kts | 357° |
| 2026-05-08 05:56 | 49.91548 | 22.32782 | 4361 ft | 231 kts | 356° |
| 2026-05-08 05:56 | 49.93156 | 22.32689 | 4107 ft | 230 kts | 356° |
| 2026-05-08 05:57 | 49.94743 | 22.32611 | 3867 ft | 229 kts | 357° |
| 2026-05-08 05:57 | 49.96340 | 22.32522 | 3612 ft | 228 kts | 357° |
| 2026-05-08 05:57 | 49.97921 | 22.32424 | 3479 ft | 222 kts | 356° |
| 2026-05-08 05:57 | 49.99424 | 22.32342 | 3473 ft | 218 kts | 357° |
| 2026-05-08 05:58 | 50.00926 | 22.32255 | 3480 ft | 208 kts | 357° |
| 2026-05-08 05:58 | 50.02311 | 22.32184 | 3488 ft | 193 kts | 358° |
| 2026-05-08 05:58 | 50.03609 | 22.32201 | 3456 ft | 180 kts | 360° |
| 2026-05-08 05:58 | 50.04838 | 22.32249 | 3468 ft | 174 kts | 359° |
| 2026-05-08 05:59 | 50.06065 | 22.32288 | 3476 ft | 175 kts | 359° |
| 2026-05-08 05:59 | 50.07282 | 22.32333 | 3477 ft | 176 kts | 360° |
| 2026-05-08 05:59 | 50.08510 | 22.32341 | 3469 ft | 176 kts | 354° |
| 2026-05-08 05:59 | 50.09637 | 22.31733 | 3464 ft | 175 kts | 322° |
| 2026-05-08 06:00 | 50.10281 | 22.30149 | 3482 ft | 184 kts | 284° |
| 2026-05-08 06:00 | 50.10358 | 22.28138 | 3476 ft | 185 kts | 276° |
| 2026-05-08 06:00 | 50.10492 | 22.26185 | 3407 ft | 178 kts | 281° |
| 2026-05-08 06:00 | 50.10602 | 22.24269 | 3200 ft | 179 kts | 277° |
| 2026-05-08 06:01 | 50.10656 | 22.22306 | 2946 ft | 180 kts | 276° |
| 2026-05-08 06:01 | 50.10719 | 22.19722 | 2616 ft | 179 kts | 277° |
| 2026-05-08 06:01 | 50.10758 | 22.18430 | 2451 ft | 179 kts | 275° |
| 2026-05-08 06:01 | 50.10775 | 22.16492 | 2195 ft | 181 kts | 274° |
| 2026-05-08 06:02 | 50.10801 | 22.14560 | 1946 ft | 177 kts | 275° |
| 2026-05-08 06:02 | 50.10832 | 22.12719 | 1755 ft | 162 kts | 275° |
| 2026-05-08 06:02 | 50.10859 | 22.11030 | 1515 ft | 152 kts | 274° |
| 2026-05-08 06:02 | 50.10886 | 22.09423 | 1308 ft | 146 kts | 273° |
| 2026-05-08 06:03 | 50.10912 | 22.07826 | 1109 ft | 147 kts | 273° |
| 2026-05-08 06:03 | 50.10938 | 22.06235 | 914 ft | 146 kts | 271° |
| 2026-05-08 06:03 | 50.10961 | 22.04672 | 721 ft | 144 kts | 271° |
| 2026-05-08 06:03 | 50.10977 | 22.03242 | 676 ft | 108 kts | 272° |
| 2026-05-08 06:04 | 50.10990 | 22.02401 | 683 ft | 51 kts | 271° |
| 2026-05-08 06:04 | 50.10996 | 22.01975 | 686 ft | 33 kts | 271° |
| 2026-05-08 06:04 | 50.10999 | 22.01668 | 688 ft | 23 kts | 271° |
| 2026-05-08 06:04 | 50.11002 | 22.01441 | 688 ft | 20 kts | 271° |
| 2026-05-08 06:05 | 50.11026 | 22.01238 | 688 ft | 18 kts | 288° |
| 2026-05-08 06:05 | 50.11077 | 22.01072 | 689 ft | 16 kts | 299° |
| 2026-05-08 06:05 | 50.11127 | 22.00976 | 690 ft | 10 kts | 347° |
| 2026-05-08 06:05 | 50.11169 | 22.01040 | 691 ft | 11 kts | 85° |
| 2026-05-08 06:06 | 50.11168 | 22.01220 | 691 ft | 21 kts | 91° |
| 2026-05-08 06:06 | 50.11165 | 22.01493 | 690 ft | 28 kts | 91° |
| 2026-05-08 06:06 | 50.11161 | 22.01795 | 689 ft | 27 kts | 91° |
| 2026-05-08 06:06 | 50.11156 | 22.02075 | 687 ft | 20 kts | 90° |
| 2026-05-08 06:07 | 50.11155 | 22.02232 | 687 ft | 11 kts | 86° |
| 2026-05-08 06:07 | 50.11216 | 22.02293 | 687 ft | 11 kts | 1° |
| 2026-05-08 06:07 | 50.11290 | 22.02297 | 687 ft | 10 kts | 7° |
| 2026-05-08 06:07 | 50.11325 | 22.02366 | 687 ft | 8 kts | 91° |
| 2026-05-08 06:08 | 50.11349 | 22.02428 | 688 ft | 6 kts | 12° |
| 2026-05-08 06:08 | 50.11386 | 22.02430 | 688 ft | 4 kts | 1° |
| 2026-05-08 06:08 | 50.11409 | 22.02431 | 689 ft | 1 kts | 0° |
| 2026-05-08 06:08 | 50.11411 | 22.02431 | 689 ft | 0 kts | 0° |